Loreauville, Louisiana
Current Conditions -  °F | °C
As of 8:53 AM on Saturday 22 Nov 2014 (Local Time) from KARA Reporting Station
Few Clouds Few Clouds  
Wind Chill: 62°   Ceiling: Unl
Heat Index: 62°   Visibility: 9mi
Dew Point: 54°   Wind: 10mph
Humidity: 75%   Direction: 100°E
Pressure: 30.18"   Gusts: NA
Location:  30.06°N, 91.74°W
Report Text: KARA 221453Z 10009KT 9SM FEW034 17/12 A3018 RMK AO2 SLP218 T01670122 56007
Loading
Personal Weather Stations






























Interactive Weather Map New forecast layout! Learn more

10-Day Weather Forecast

Advertisements
Track Severe Weather on mobile